sensor_id;sensor_type;location;lat;lon;timestamp;pressure;altitude;pressure_sealevel;temperature;humidity
46456;BME280;32154;47.160;8.120;2022-07-06T00:02:32;96401.91;;;21.76;60.24
46456;BME280;32154;47.160;8.120;2022-07-06T00:07:37;96399.50;;;21.37;58.29
46456;BME280;32154;47.160;8.120;2022-07-06T00:12:57;96387.97;;;21.21;59.60
46456;BME280;32154;47.160;8.120;2022-07-06T00:18:18;96392.09;;;21.54;57.16
46456;BME280;32154;47.160;8.120;2022-07-06T00:23:40;96387.22;;;21.42;56.29
46456;BME280;32154;47.160;8.120;2022-07-06T00:28:42;96395.63;;;21.09;57.32
46456;BME280;32154;47.160;8.120;2022-07-06T00:33:45;96394.44;;;20.73;58.38
46456;BME280;32154;47.160;8.120;2022-07-06T00:38:47;96402.38;;;20.67;58.55
46456;BME280;32154;47.160;8.120;2022-07-06T00:44:08;96394.88;;;21.00;58.02
46456;BME280;32154;47.160;8.120;2022-07-06T00:49:11;96400.06;;;21.17;57.27
46456;BME280;32154;47.160;8.120;2022-07-06T00:54:13;96398.38;;;21.16;57.16
46456;BME280;32154;47.160;8.120;2022-07-06T00:59:16;96388.50;;;21.16;56.77
46456;BME280;32154;47.160;8.120;2022-07-06T01:04:18;96380.38;;;21.10;55.94
46456;BME280;32154;47.160;8.120;2022-07-06T01:09:39;96385.66;;;20.64;58.00
46456;BME280;32154;47.160;8.120;2022-07-06T01:15:00;96382.97;;;20.64;58.14
46456;BME280;32154;47.160;8.120;2022-07-06T01:20:14;96382.88;;;20.73;58.76
46456;BME280;32154;47.160;8.120;2022-07-06T01:25:17;96379.66;;;20.77;58.51
46456;BME280;32154;47.160;8.120;2022-07-06T01:30:20;96383.03;;;20.95;58.99
46456;BME280;32154;47.160;8.120;2022-07-06T01:35:41;96373.72;;;20.90;58.81
46456;BME280;32154;47.160;8.120;2022-07-06T01:40:43;96367.72;;;20.88;58.45
46456;BME280;32154;47.160;8.120;2022-07-06T01:45:45;96381.75;;;20.67;57.28
46456;BME280;32154;47.160;8.120;2022-07-06T01:51:06;96391.63;;;20.28;60.01
46456;BME280;32154;47.160;8.120;2022-07-06T01:56:10;96381.31;;;20.40;59.94
46456;BME280;32154;47.160;8.120;2022-07-06T02:01:18;96391.66;;;20.43;59.68
46456;BME280;32154;47.160;8.120;2022-07-06T02:06:39;96391.72;;;20.58;58.69
46456;BME280;32154;47.160;8.120;2022-07-06T02:11:42;96392.03;;;20.63;58.32
46456;BME280;32154;47.160;8.120;2022-07-06T02:16:44;96389.03;;;20.58;58.60
46456;BME280;32154;47.160;8.120;2022-07-06T02:21:51;96382.06;;;20.34;57.51
46456;BME280;32154;47.160;8.120;2022-07-06T02:27:11;96381.63;;;20.22;59.74
46456;BME280;32154;47.160;8.120;2022-07-06T02:32:15;96371.28;;;20.19;57.58
46456;BME280;32154;47.160;8.120;2022-07-06T02:37:35;96372.22;;;20.03;59.42
46456;BME280;32154;47.160;8.120;2022-07-06T02:42:38;96378.81;;;19.92;58.78
46456;BME280;32154;47.160;8.120;2022-07-06T02:47:42;96371.22;;;20.04;58.54
46456;BME280;32154;47.160;8.120;2022-07-06T02:53:03;96375.09;;;19.70;59.55
46456;BME280;32154;47.160;8.120;2022-07-06T02:58:06;96389.00;;;19.65;59.43
46456;BME280;32154;47.160;8.120;2022-07-06T03:03:09;96390.25;;;19.77;60.36
46456;BME280;32154;47.160;8.120;2022-07-06T03:08:14;96396.25;;;19.48;61.12
46456;BME280;32154;47.160;8.120;2022-07-06T03:13:17;96403.41;;;19.56;61.47
46456;BME280;32154;47.160;8.120;2022-07-06T03:18:20;96402.25;;;19.90;58.93
46456;BME280;32154;47.160;8.120;2022-07-06T03:23:24;96402.56;;;19.87;58.13
46456;BME280;32154;47.160;8.120;2022-07-06T03:28:44;96406.47;;;19.76;59.14
46456;BME280;32154;47.160;8.120;2022-07-06T03:34:05;96404.69;;;19.68;59.04
46456;BME280;32154;47.160;8.120;2022-07-06T03:39:25;96406.19;;;19.22;61.81
46456;BME280;32154;47.160;8.120;2022-07-06T03:44:30;96410.66;;;19.30;62.86
46456;BME280;32154;47.160;8.120;2022-07-06T03:49:50;96407.19;;;19.21;61.87
46456;BME280;32154;47.160;8.120;2022-07-06T03:55:11;96410.91;;;18.95;62.48
46456;BME280;32154;47.160;8.120;2022-07-06T04:00:19;96411.75;;;19.04;61.76
46456;BME280;32154;47.160;8.120;2022-07-06T04:05:30;96422.28;;;19.06;61.30
46456;BME280;32154;47.160;8.120;2022-07-06T04:10:32;96415.09;;;18.98;62.44
46456;BME280;32154;47.160;8.120;2022-07-06T04:15:52;96425.63;;;19.00;63.93
46456;BME280;32154;47.160;8.120;2022-07-06T04:20:58;96419.78;;;18.96;63.20
46456;BME280;32154;47.160;8.120;2022-07-06T04:26:03;96420.28;;;18.83;62.33
46456;BME280;32154;47.160;8.120;2022-07-06T04:31:24;96419.94;;;18.94;62.22
46456;BME280;32154;47.160;8.120;2022-07-06T04:36:44;96419.78;;;18.96;62.59
46456;BME280;32154;47.160;8.120;2022-07-06T04:42:05;96423.91;;;18.99;62.22
46456;BME280;32154;47.160;8.120;2022-07-06T04:47:26;96417.22;;;19.19;61.27
46456;BME280;32154;47.160;8.120;2022-07-06T04:52:30;96422.28;;;19.14;62.09
46456;BME280;32154;47.160;8.120;2022-07-06T04:57:32;96417.00;;;19.37;60.32
46456;BME280;32154;47.160;8.120;2022-07-06T05:02:36;96422.47;;;19.52;60.05
46456;BME280;32154;47.160;8.120;2022-07-06T05:07:39;96408.84;;;19.39;61.34
46456;BME280;32154;47.160;8.120;2022-07-06T05:12:43;96414.06;;;19.64;61.22
46456;BME280;32154;47.160;8.120;2022-07-06T05:18:06;96417.19;;;19.76;59.53
46456;BME280;32154;47.160;8.120;2022-07-06T05:23:08;96415.13;;;19.55;59.81
46456;BME280;32154;47.160;8.120;2022-07-06T05:28:11;96416.50;;;19.82;59.43
46456;BME280;32154;47.160;8.120;2022-07-06T05:33:14;96419.75;;;20.01;59.25
46456;BME280;32154;47.160;8.120;2022-07-06T05:38:16;96415.75;;;20.28;57.53
46456;BME280;32154;47.160;8.120;2022-07-06T05:43:22;96422.97;;;20.66;55.69
46456;BME280;32154;47.160;8.120;2022-07-06T05:48:25;96424.06;;;22.00;52.35
46456;BME280;32154;47.160;8.120;2022-07-06T05:53:30;96417.78;;;22.73;51.24
46456;BME280;32154;47.160;8.120;2022-07-06T05:58:32;96415.72;;;23.68;50.86
46456;BME280;32154;47.160;8.120;2022-07-06T06:03:53;96428.16;;;24.18;47.55
46456;BME280;32154;47.160;8.120;2022-07-06T06:08:59;96433.53;;;24.18;46.34
46456;BME280;32154;47.160;8.120;2022-07-06T06:14:01;96425.56;;;25.91;44.04
46456;BME280;32154;47.160;8.120;2022-07-06T06:19:06;96420.78;;;25.93;41.66
46456;BME280;32154;47.160;8.120;2022-07-06T06:24:27;96429.28;;;26.75;41.32
46456;BME280;32154;47.160;8.120;2022-07-06T06:29:48;96429.84;;;27.72;39.44
46456;BME280;32154;47.160;8.120;2022-07-06T06:34:50;96428.34;;;27.95;36.55
46456;BME280;32154;47.160;8.120;2022-07-06T06:39:53;96435.25;;;28.70;37.78
46456;BME280;32154;47.160;8.120;2022-07-06T06:45:15;96435.28;;;29.78;34.45
46456;BME280;32154;47.160;8.120;2022-07-06T06:50:18;96446.25;;;29.95;32.57
46456;BME280;32154;47.160;8.120;2022-07-06T06:55:20;96433.31;;;30.43;32.78
46456;BME280;32154;47.160;8.120;2022-07-06T07:00:23;96434.81;;;31.14;32.14
46456;BME280;32154;47.160;8.120;2022-07-06T07:05:45;96430.84;;;31.56;28.97
46456;BME280;32154;47.160;8.120;2022-07-06T07:10:48;96429.28;;;31.82;28.89
46456;BME280;32154;47.160;8.120;2022-07-06T07:16:09;96421.94;;;31.44;28.83
46456;BME280;32154;47.160;8.120;2022-07-06T07:21:11;96416.66;;;32.48;26.89
46456;BME280;32154;47.160;8.120;2022-07-06T07:26:16;96417.81;;;31.80;26.73
46456;BME280;32154;47.160;8.120;2022-07-06T07:31:22;96422.13;;;31.37;26.65
46456;BME280;32154;47.160;8.120;2022-07-06T07:36:50;96417.91;;;29.79;27.93
46456;BME280;32154;47.160;8.120;2022-07-06T07:41:52;96419.41;;;29.22;29.47
46456;BME280;32154;47.160;8.120;2022-07-06T07:46:55;96410.88;;;29.30;28.78
46456;BME280;32154;47.160;8.120;2022-07-06T07:52:04;96415.13;;;29.73;27.96
46456;BME280;32154;47.160;8.120;2022-07-06T07:57:07;96408.69;;;28.72;29.65
46456;BME280;32154;47.160;8.120;2022-07-06T08:02:09;96407.03;;;30.49;30.47
46456;BME280;32154;47.160;8.120;2022-07-06T08:07:14;96406.63;;;30.69;27.07
46456;BME280;32154;47.160;8.120;2022-07-06T08:12:35;96407.25;;;31.10;26.09
46456;BME280;32154;47.160;8.120;2022-07-06T08:17:48;96405.66;;;31.49;30.46
46456;BME280;32154;47.160;8.120;2022-07-06T08:23:10;96409.25;;;32.44;25.46
46456;BME280;32154;47.160;8.120;2022-07-06T08:28:12;96414.56;;;31.44;28.71
46456;BME280;32154;47.160;8.120;2022-07-06T08:33:17;96417.00;;;32.57;29.99
46456;BME280;32154;47.160;8.120;2022-07-06T08:38:25;96411.63;;;33.33;27.00
46456;BME280;32154;47.160;8.120;2022-07-06T08:43:33;96422.16;;;32.81;24.70
46456;BME280;32154;47.160;8.120;2022-07-06T08:48:40;96422.94;;;31.37;28.01
46456;BME280;32154;47.160;8.120;2022-07-06T08:54:02;96425.00;;;30.50;29.06
46456;BME280;32154;47.160;8.120;2022-07-06T08:59:05;96437.16;;;32.78;29.35
46456;BME280;32154;47.160;8.120;2022-07-06T09:04:07;96434.00;;;33.30;25.67
46456;BME280;32154;47.160;8.120;2022-07-06T09:09:10;96442.09;;;33.14;25.82
46456;BME280;32154;47.160;8.120;2022-07-06T09:14:17;96438.38;;;33.69;25.21
46456;BME280;32154;47.160;8.120;2022-07-06T09:19:38;96437.47;;;31.82;28.95
46456;BME280;32154;47.160;8.120;2022-07-06T09:25:08;96446.63;;;32.98;25.08
46456;BME280;32154;47.160;8.120;2022-07-06T09:30:12;96439.34;;;33.52;24.67
46456;BME280;32154;47.160;8.120;2022-07-06T09:35:38;96443.78;;;33.58;21.81
46456;BME280;32154;47.160;8.120;2022-07-06T09:40:42;96442.13;;;28.85;30.51
46456;BME280;32154;47.160;8.120;2022-07-06T09:46:06;96440.63;;;30.25;26.52
46456;BME280;32154;47.160;8.120;2022-07-06T09:51:09;96437.88;;;30.66;24.95
46456;BME280;32154;47.160;8.120;2022-07-06T09:56:12;96437.09;;;32.46;23.76
46456;BME280;32154;47.160;8.120;2022-07-06T10:01:37;96446.69;;;32.76;25.67
46456;BME280;32154;47.160;8.120;2022-07-06T10:06:40;96446.38;;;32.72;27.10
46456;BME280;32154;47.160;8.120;2022-07-06T10:12:02;96443.31;;;34.36;27.22
46456;BME280;32154;47.160;8.120;2022-07-06T10:17:05;96428.97;;;33.11;24.63
46456;BME280;32154;47.160;8.120;2022-07-06T10:22:08;96434.19;;;33.56;28.65
46456;BME280;32154;47.160;8.120;2022-07-06T10:27:11;96428.44;;;33.14;27.29
46456;BME280;32154;47.160;8.120;2022-07-06T10:32:19;96421.06;;;33.58;24.46
46456;BME280;32154;47.160;8.120;2022-07-06T10:37:42;96421.91;;;34.17;22.64
46456;BME280;32154;47.160;8.120;2022-07-06T10:42:58;96423.31;;;33.61;27.19
46456;BME280;32154;47.160;8.120;2022-07-06T10:53:26;96409.03;;;32.23;24.66
46456;BME280;32154;47.160;8.120;2022-07-06T10:58:49;96407.91;;;32.46;25.72
46456;BME280;32154;47.160;8.120;2022-07-06T11:04:09;96403.31;;;33.55;27.45
46456;BME280;32154;47.160;8.120;2022-07-06T11:09:14;96398.69;;;31.58;28.89
46456;BME280;32154;47.160;8.120;2022-07-06T11:14:17;96404.34;;;34.02;26.38
46456;BME280;32154;47.160;8.120;2022-07-06T11:19:48;96396.94;;;33.44;26.14
46456;BME280;32154;47.160;8.120;2022-07-06T11:24:51;96400.50;;;33.02;23.98
46456;BME280;32154;47.160;8.120;2022-07-06T11:29:54;96400.72;;;33.38;26.49
46456;BME280;32154;47.160;8.120;2022-07-06T11:35:21;96399.63;;;32.63;27.12
46456;BME280;32154;47.160;8.120;2022-07-06T11:40:24;96409.66;;;32.58;27.99
46456;BME280;32154;47.160;8.120;2022-07-06T11:45:27;96406.81;;;32.75;27.41
46456;BME280;32154;47.160;8.120;2022-07-06T11:50:29;96404.00;;;33.88;25.90
46456;BME280;32154;47.160;8.120;2022-07-06T11:55:53;96405.97;;;33.02;26.07
46456;BME280;32154;47.160;8.120;2022-07-06T12:01:09;96411.38;;;32.97;29.37
46456;BME280;32154;47.160;8.120;2022-07-06T12:06:19;96408.59;;;32.91;29.67
46456;BME280;32154;47.160;8.120;2022-07-06T12:11:40;96405.00;;;32.31;26.92
46456;BME280;32154;47.160;8.120;2022-07-06T12:16:46;96406.59;;;31.99;27.94
46456;BME280;32154;47.160;8.120;2022-07-06T12:21:49;96397.63;;;32.31;28.45
46456;BME280;32154;47.160;8.120;2022-07-06T12:32:21;96399.31;;;32.60;25.54
46456;BME280;32154;47.160;8.120;2022-07-06T12:37:24;96388.66;;;33.29;26.16
46456;BME280;32154;47.160;8.120;2022-07-06T12:42:27;96385.66;;;32.92;24.55
46456;BME280;32154;47.160;8.120;2022-07-06T12:48:05;96384.25;;;33.22;28.53
46456;BME280;32154;47.160;8.120;2022-07-06T12:53:24;96385.13;;;32.96;27.84
46456;BME280;32154;47.160;8.120;2022-07-06T12:58:27;96383.38;;;32.84;25.20
46456;BME280;32154;47.160;8.120;2022-07-06T13:03:41;96374.59;;;32.77;25.17
46456;BME280;32154;47.160;8.120;2022-07-06T13:09:10;96377.34;;;32.77;27.33
46456;BME280;32154;47.160;8.120;2022-07-06T13:14:13;96367.81;;;31.97;25.44
46456;BME280;32154;47.160;8.120;2022-07-06T13:19:16;96374.03;;;30.91;26.94
46456;BME280;32154;47.160;8.120;2022-07-06T13:24:19;96367.06;;;31.57;27.64
46456;BME280;32154;47.160;8.120;2022-07-06T13:29:39;96360.41;;;31.25;25.64
46456;BME280;32154;47.160;8.120;2022-07-06T13:34:42;96357.03;;;30.21;30.96
46456;BME280;32154;47.160;8.120;2022-07-06T13:39:44;96361.56;;;29.86;28.35
46456;BME280;32154;47.160;8.120;2022-07-06T13:44:47;96355.63;;;29.36;29.03
46456;BME280;32154;47.160;8.120;2022-07-06T13:50:09;96351.38;;;28.81;29.65
46456;BME280;32154;47.160;8.120;2022-07-06T13:55:12;96340.09;;;30.48;29.30
46456;BME280;32154;47.160;8.120;2022-07-06T14:00:14;96343.97;;;30.35;28.51
46456;BME280;32154;47.160;8.120;2022-07-06T14:05:17;96350.34;;;30.92;29.53
46456;BME280;32154;47.160;8.120;2022-07-06T14:10:38;96335.19;;;31.18;28.23
46456;BME280;32154;47.160;8.120;2022-07-06T14:16:00;96327.91;;;31.86;29.92
46456;BME280;32154;47.160;8.120;2022-07-06T14:21:20;96326.13;;;31.12;27.23
46456;BME280;32154;47.160;8.120;2022-07-06T14:26:24;96322.94;;;30.98;30.38
46456;BME280;32154;47.160;8.120;2022-07-06T14:31:26;96323.03;;;31.04;29.24
46456;BME280;32154;47.160;8.120;2022-07-06T14:36:50;96319.97;;;30.49;31.93
46456;BME280;32154;47.160;8.120;2022-07-06T14:41:56;96314.38;;;30.90;29.92
46456;BME280;32154;47.160;8.120;2022-07-06T14:47:18;96315.72;;;30.87;27.58
46456;BME280;32154;47.160;8.120;2022-07-06T14:52:31;96317.63;;;31.09;27.32
46456;BME280;32154;47.160;8.120;2022-07-06T14:57:36;96320.84;;;30.66;27.81
46456;BME280;32154;47.160;8.120;2022-07-06T15:02:59;96313.47;;;30.15;28.41
46456;BME280;32154;47.160;8.120;2022-07-06T15:08:05;96310.91;;;30.26;28.38
46456;BME280;32154;47.160;8.120;2022-07-06T15:13:08;96306.84;;;30.11;32.88
46456;BME280;32154;47.160;8.120;2022-07-06T15:18:28;96299.78;;;30.27;27.48
46456;BME280;32154;47.160;8.120;2022-07-06T15:23:31;96292.13;;;30.24;28.17
46456;BME280;32154;47.160;8.120;2022-07-06T15:28:36;96300.69;;;29.58;26.63
46456;BME280;32154;47.160;8.120;2022-07-06T15:33:38;96293.56;;;29.69;28.71
46456;BME280;32154;47.160;8.120;2022-07-06T15:38:41;96299.56;;;30.46;28.01
46456;BME280;32154;47.160;8.120;2022-07-06T15:44:02;96294.94;;;30.00;27.98
46456;BME280;32154;47.160;8.120;2022-07-06T15:49:24;96294.75;;;30.19;30.45
46456;BME280;32154;47.160;8.120;2022-07-06T15:54:26;96284.53;;;29.80;27.11
46456;BME280;32154;47.160;8.120;2022-07-06T15:59:29;96278.69;;;30.18;30.46
46456;BME280;32154;47.160;8.120;2022-07-06T16:04:55;96287.63;;;30.01;29.67
46456;BME280;32154;47.160;8.120;2022-07-06T16:09:58;96282.91;;;30.42;29.12
46456;BME280;32154;47.160;8.120;2022-07-06T16:15:01;96282.22;;;30.35;27.50
46456;BME280;32154;47.160;8.120;2022-07-06T16:20:04;96282.59;;;29.64;29.98
46456;BME280;32154;47.160;8.120;2022-07-06T16:25:07;96272.84;;;30.09;27.87
46456;BME280;32154;47.160;8.120;2022-07-06T16:30:11;96273.38;;;29.65;31.16
46456;BME280;32154;47.160;8.120;2022-07-06T16:35:21;96277.00;;;29.29;30.62
46456;BME280;32154;47.160;8.120;2022-07-06T16:40:23;96275.19;;;28.58;29.87
46456;BME280;32154;47.160;8.120;2022-07-06T16:45:26;96271.41;;;28.71;29.53
46456;BME280;32154;47.160;8.120;2022-07-06T16:50:50;96277.28;;;28.44;30.15
46456;BME280;32154;47.160;8.120;2022-07-06T16:56:11;96281.75;;;27.96;29.53
46456;BME280;32154;47.160;8.120;2022-07-06T17:01:33;96286.44;;;27.40;30.58
46456;BME280;32154;47.160;8.120;2022-07-06T17:06:54;96287.16;;;27.35;31.88
46456;BME280;32154;47.160;8.120;2022-07-06T17:11:56;96280.59;;;27.61;31.75
46456;BME280;32154;47.160;8.120;2022-07-06T17:17:16;96282.78;;;27.83;31.75
46456;BME280;32154;47.160;8.120;2022-07-06T17:23:01;96281.41;;;27.92;30.34
46456;BME280;32154;47.160;8.120;2022-07-06T17:28:22;96285.19;;;28.03;33.92
46456;BME280;32154;47.160;8.120;2022-07-06T17:33:25;96282.88;;;28.07;33.88
46456;BME280;32154;47.160;8.120;2022-07-06T17:38:49;96288.38;;;28.00;33.64
46456;BME280;32154;47.160;8.120;2022-07-06T17:44:36;96281.03;;;27.89;33.88
46456;BME280;32154;47.160;8.120;2022-07-06T17:49:38;96286.09;;;27.55;33.90
46456;BME280;32154;47.160;8.120;2022-07-06T17:54:45;96289.31;;;27.45;34.25
46456;BME280;32154;47.160;8.120;2022-07-06T18:00:13;96280.25;;;27.02;35.73
46456;BME280;32154;47.160;8.120;2022-07-06T18:05:15;96281.59;;;27.11;35.35
46456;BME280;32154;47.160;8.120;2022-07-06T18:10:18;96287.03;;;27.11;35.93
46456;BME280;32154;47.160;8.120;2022-07-06T18:15:39;96291.47;;;26.80;36.34
46456;BME280;32154;47.160;8.120;2022-07-06T18:20:41;96288.06;;;26.91;37.03
46456;BME280;32154;47.160;8.120;2022-07-06T18:25:44;96300.53;;;26.92;38.26
46456;BME280;32154;47.160;8.120;2022-07-06T18:30:47;96294.16;;;27.05;38.60
46456;BME280;32154;47.160;8.120;2022-07-06T18:35:50;96305.50;;;26.96;39.54
46456;BME280;32154;47.160;8.120;2022-07-06T18:40:56;96309.34;;;27.25;37.56
46456;BME280;32154;47.160;8.120;2022-07-06T18:45:58;96303.09;;;26.87;37.84
46456;BME280;32154;47.160;8.120;2022-07-06T18:51:00;96301.34;;;26.49;37.98
46456;BME280;32154;47.160;8.120;2022-07-06T18:56:03;96295.56;;;26.64;38.38
46456;BME280;32154;47.160;8.120;2022-07-06T19:01:05;96307.94;;;26.53;39.66
46456;BME280;32154;47.160;8.120;2022-07-06T19:06:28;96318.75;;;26.28;41.24
46456;BME280;32154;47.160;8.120;2022-07-06T19:11:49;96322.69;;;26.32;43.65
46456;BME280;32154;47.160;8.120;2022-07-06T19:17:55;96327.63;;;26.03;41.99
46456;BME280;32154;47.160;8.120;2022-07-06T19:30:41;96343.25;;;25.94;39.80
46456;BME280;32154;47.160;8.120;2022-07-06T19:35:43;96354.31;;;25.86;40.59
46456;BME280;32154;47.160;8.120;2022-07-06T19:40:46;96359.56;;;25.74;41.94
46456;BME280;32154;47.160;8.120;2022-07-06T19:45:49;96362.16;;;25.42;43.29
46456;BME280;32154;47.160;8.120;2022-07-06T19:50:51;96372.56;;;25.38;42.89
46456;BME280;32154;47.160;8.120;2022-07-06T19:55:57;96377.94;;;25.45;44.01
46456;BME280;32154;47.160;8.120;2022-07-06T20:01:00;96386.03;;;25.45;43.96
46456;BME280;32154;47.160;8.120;2022-07-06T20:06:20;96404.72;;;25.53;46.44
46456;BME280;32154;47.160;8.120;2022-07-06T20:11:23;96407.03;;;25.29;44.39
46456;BME280;32154;47.160;8.120;2022-07-06T20:16:44;96407.69;;;25.04;44.55
46456;BME280;32154;47.160;8.120;2022-07-06T20:21:47;96417.06;;;24.95;45.42
46456;BME280;32154;47.160;8.120;2022-07-06T20:26:49;96417.00;;;24.75;45.26
46456;BME280;32154;47.160;8.120;2022-07-06T20:31:52;96418.28;;;24.52;45.29
46456;BME280;32154;47.160;8.120;2022-07-06T20:36:54;96416.63;;;24.71;45.01
46456;BME280;32154;47.160;8.120;2022-07-06T20:41:57;96420.53;;;24.35;45.40
46456;BME280;32154;47.160;8.120;2022-07-06T20:47:00;96418.03;;;24.40;45.88
46456;BME280;32154;47.160;8.120;2022-07-06T20:52:02;96422.66;;;23.91;45.96
46456;BME280;32154;47.160;8.120;2022-07-06T20:57:23;96432.88;;;23.60;46.75
46456;BME280;32154;47.160;8.120;2022-07-06T21:02:26;96443.31;;;23.83;46.46
46456;BME280;32154;47.160;8.120;2022-07-06T21:07:29;96445.22;;;23.90;46.22
46456;BME280;32154;47.160;8.120;2022-07-06T21:12:31;96454.19;;;24.04;48.20
46456;BME280;32154;47.160;8.120;2022-07-06T21:17:38;96466.31;;;24.28;46.93
46456;BME280;32154;47.160;8.120;2022-07-06T21:22:41;96467.94;;;24.16;47.73
46456;BME280;32154;47.160;8.120;2022-07-06T21:27:43;96453.09;;;23.91;50.37
46456;BME280;32154;47.160;8.120;2022-07-06T21:32:45;96450.81;;;23.95;48.52
46456;BME280;32154;47.160;8.120;2022-07-06T21:37:47;96456.00;;;23.90;49.00
46456;BME280;32154;47.160;8.120;2022-07-06T21:42:50;96459.78;;;23.60;47.42
46456;BME280;32154;47.160;8.120;2022-07-06T21:48:11;96458.69;;;23.48;48.22
46456;BME280;32154;47.160;8.120;2022-07-06T21:53:13;96460.09;;;23.43;48.96
46456;BME280;32154;47.160;8.120;2022-07-06T21:58:15;96468.38;;;23.42;49.27
46456;BME280;32154;47.160;8.120;2022-07-06T22:03:18;96471.19;;;23.62;47.74
46456;BME280;32154;47.160;8.120;2022-07-06T22:08:21;96463.78;;;23.14;48.15
46456;BME280;32154;47.160;8.120;2022-07-06T22:13:41;96470.00;;;23.14;47.81
46456;BME280;32154;47.160;8.120;2022-07-06T22:18:46;96453.56;;;22.74;48.22
46456;BME280;32154;47.160;8.120;2022-07-06T22:24:07;96461.22;;;22.77;48.53
46456;BME280;32154;47.160;8.120;2022-07-06T22:29:28;96462.66;;;22.36;49.06
46456;BME280;32154;47.160;8.120;2022-07-06T22:34:48;96459.94;;;22.14;49.16
46456;BME280;32154;47.160;8.120;2022-07-06T22:40:28;96448.16;;;21.94;49.35
46456;BME280;32154;47.160;8.120;2022-07-06T22:46:22;96442.81;;;21.79;49.77
46456;BME280;32154;47.160;8.120;2022-07-06T22:57:31;96458.09;;;22.15;51.70
46456;BME280;32154;47.160;8.120;2022-07-06T23:02:52;96469.16;;;21.90;52.63
46456;BME280;32154;47.160;8.120;2022-07-06T23:13:33;96469.25;;;21.82;51.56
46456;BME280;32154;47.160;8.120;2022-07-06T23:18:36;96457.69;;;21.51;53.26
46456;BME280;32154;47.160;8.120;2022-07-06T23:23:38;96452.22;;;21.29;54.63
46456;BME280;32154;47.160;8.120;2022-07-06T23:28:59;96452.03;;;21.01;53.87
46456;BME280;32154;47.160;8.120;2022-07-06T23:34:20;96453.09;;;20.91;52.67
46456;BME280;32154;47.160;8.120;2022-07-06T23:39:41;96442.47;;;20.98;53.02
46456;BME280;32154;47.160;8.120;2022-07-06T23:44:43;96444.88;;;20.93;54.08
46456;BME280;32154;47.160;8.120;2022-07-06T23:49:46;96441.84;;;21.11;54.51
46456;BME280;32154;47.160;8.120;2022-07-06T23:54:49;96446.03;;;20.52;53.36
